createdAt,value
2023-03-06T00:00:27.060Z,6.13
2023-03-06T00:01:28.568Z,6.10
2023-03-06T00:02:29.999Z,6.40
2023-03-06T00:03:33.530Z,6.50
2023-03-06T00:04:35.069Z,7.32
2023-03-06T00:05:36.560Z,6.07
2023-03-06T00:06:38.051Z,6.05
2023-03-06T00:07:39.905Z,5.88
2023-03-06T00:08:41.304Z,6.47
2023-03-06T00:09:42.784Z,6.35
2023-03-06T00:10:44.554Z,6.50
2023-03-06T00:11:46.110Z,6.30
2023-03-06T00:12:47.658Z,5.82
2023-03-06T00:13:49.196Z,6.10
2023-03-06T00:14:50.720Z,6.03
2023-03-06T00:15:52.749Z,6.55
2023-03-06T00:16:55.978Z,6.88
2023-03-06T00:17:57.809Z,6.20
2023-03-06T00:18:59.286Z,6.47
2023-03-06T00:20:00.768Z,6.70
2023-03-06T00:21:02.236Z,6.30
2023-03-06T00:22:03.718Z,6.03
2023-03-06T00:23:05.248Z,6.05
2023-03-06T00:24:06.788Z,6.85
2023-03-06T00:25:13.656Z,5.95
2023-03-06T00:26:15.065Z,5.80
2023-03-06T00:27:16.538Z,6.70
2023-03-06T00:28:18.008Z,6.07
2023-03-06T00:29:19.527Z,6.80
2023-03-06T00:30:23.997Z,6.85
2023-03-06T00:31:25.483Z,6.75
2023-03-06T00:32:28.511Z,6.88
2023-03-06T00:33:30.558Z,6.60
2023-03-06T00:34:32.039Z,6.72
2023-03-06T00:35:33.816Z,6.65
2023-03-06T00:36:35.253Z,7.10
2023-03-06T00:37:36.797Z,6.22
2023-03-06T00:38:38.315Z,6.60
2023-03-06T00:39:39.756Z,7.43
2023-03-06T00:40:41.296Z,6.75
2023-03-06T00:41:43.451Z,6.57
2023-03-06T00:42:46.552Z,5.95
2023-03-06T00:43:48.175Z,6.47
2023-03-06T00:44:49.611Z,6.18
2023-03-06T00:45:51.422Z,6.22
2023-03-06T00:46:52.971Z,6.03
2023-03-06T00:47:54.561Z,7.13
2023-03-06T00:48:56.114Z,6.72
2023-03-06T00:49:57.601Z,6.32
2023-03-06T00:50:59.070Z,6.10
2023-03-06T00:52:00.631Z,6.68
2023-03-06T00:53:02.176Z,6.60
2023-03-06T00:54:03.599Z,6.50
2023-03-06T00:55:06.154Z,6.38
2023-03-06T00:56:09.165Z,6.40
2023-03-06T00:58:12.438Z,6.68
2023-03-06T00:59:13.982Z,6.30
2023-03-06T01:00:15.793Z,6.47
2023-03-06T01:01:17.427Z,6.30
2023-03-06T01:02:19.234Z,6.70
2023-03-06T01:04:34.053Z,6.93
2023-03-06T01:05:36.912Z,6.45
2023-03-06T01:06:38.564Z,6.57
2023-03-06T01:07:40.072Z,6.72
2023-03-06T01:08:41.525Z,6.57
2023-03-06T01:09:43.095Z,6.80
2023-03-06T01:10:44.949Z,7.32
2023-03-06T01:11:46.715Z,6.60
2023-03-06T01:12:48.280Z,6.30
2023-03-06T01:13:49.861Z,6.82
2023-03-06T01:14:51.484Z,6.55
2023-03-06T01:15:53.210Z,6.93
2023-03-06T01:16:54.761Z,6.55
2023-03-06T01:17:56.474Z,7.30
2023-03-06T01:18:58.325Z,5.60
2023-03-06T01:19:59.773Z,6.75
2023-03-06T01:21:01.540Z,6.60
2023-03-06T01:22:02.993Z,6.30
2023-03-06T01:23:04.547Z,6.32
2023-03-06T01:24:06.273Z,6.30
2023-03-06T01:25:08.696Z,6.22
2023-03-06T01:26:10.704Z,6.50
2023-03-06T01:27:12.448Z,6.68
2023-03-06T01:28:13.879Z,5.88
2023-03-06T01:29:15.541Z,6.25
2023-03-06T01:30:17.466Z,7.07
2023-03-06T01:31:19.191Z,6.50
2023-03-06T01:32:21.601Z,6.45
2023-03-06T01:33:23.246Z,6.60
2023-03-06T01:34:25.914Z,6.43
2023-03-06T01:35:27.436Z,5.82
2023-03-06T01:36:29.004Z,5.75
2023-03-06T01:37:30.535Z,6.03
2023-03-06T01:38:32.057Z,5.78
2023-03-06T01:39:33.824Z,6.40
2023-03-06T01:40:36.731Z,6.55
2023-03-06T01:41:38.297Z,6.10
2023-03-06T01:42:40.542Z,6.55
2023-03-06T01:43:45.556Z,6.05
2023-03-06T01:45:08.157Z,6.30
2023-03-06T01:46:28.136Z,6.45
2023-03-06T01:47:29.586Z,6.25
2023-03-06T01:48:31.214Z,6.28
2023-03-06T01:49:37.220Z,6.00
2023-03-06T01:50:38.738Z,5.93
2023-03-06T01:51:47.868Z,6.60
2023-03-06T01:52:53.578Z,6.70
2023-03-06T01:53:59.108Z,5.97
2023-03-06T01:55:11.065Z,6.53
2023-03-06T01:56:14.335Z,6.72
2023-03-06T01:57:20.867Z,6.65
2023-03-06T01:58:22.628Z,6.38
2023-03-06T01:59:27.193Z,6.25
2023-03-06T02:00:30.014Z,6.35
2023-03-06T02:01:33.295Z,6.63
2023-03-06T02:02:35.394Z,6.65
2023-03-06T02:03:37.634Z,6.35
2023-03-06T02:04:42.410Z,6.00
2023-03-06T02:05:44.786Z,6.40
2023-03-06T02:06:47.750Z,6.88
2023-03-06T02:07:50.631Z,6.60
2023-03-06T02:08:53.314Z,6.65
2023-03-06T02:09:54.780Z,6.45
2023-03-06T02:11:09.517Z,6.32
2023-03-06T02:12:14.565Z,6.47
2023-03-06T02:13:16.151Z,6.68
2023-03-06T02:14:18.651Z,6.25
2023-03-06T02:15:23.371Z,6.00
2023-03-06T02:16:28.665Z,6.30
2023-03-06T02:17:30.421Z,7.07
2023-03-06T02:18:33.971Z,6.70
2023-03-06T02:19:59.815Z,6.43
2023-03-06T02:21:06.184Z,7.60
2023-03-06T02:22:07.855Z,6.68
2023-03-06T02:23:18.213Z,7.13
2023-03-06T02:24:33.429Z,7.53
2023-03-06T02:25:45.018Z,6.95
2023-03-06T02:26:47.587Z,7.30
2023-03-06T02:27:49.710Z,6.80
2023-03-06T02:28:51.290Z,6.70
2023-03-06T02:29:52.746Z,6.55
2023-03-06T02:30:56.085Z,7.22
2023-03-06T02:31:57.970Z,7.38
2023-03-06T02:32:59.402Z,6.93
2023-03-06T02:34:15.882Z,7.18
2023-03-06T02:35:23.669Z,6.13
2023-03-06T02:36:25.197Z,6.60
2023-03-06T02:37:28.538Z,7.13
2023-03-06T02:38:35.082Z,6.93
2023-03-06T02:39:43.217Z,7.78
2023-03-06T02:40:48.477Z,7.20
2023-03-06T02:41:49.899Z,6.88
2023-03-06T02:42:57.801Z,6.72
2023-03-06T02:43:59.250Z,7.40
2023-03-06T02:45:03.595Z,7.28
2023-03-06T02:46:05.804Z,6.90
2023-03-06T02:47:07.774Z,6.72
2023-03-06T02:48:09.349Z,7.63
2023-03-06T02:49:10.798Z,7.47
2023-03-06T02:50:12.558Z,7.57
2023-03-06T02:51:14.281Z,7.13
2023-03-06T02:52:15.686Z,7.90
2023-03-06T02:53:18.929Z,7.88
2023-03-06T02:54:20.363Z,7.57
2023-03-06T02:55:22.195Z,7.45
2023-03-06T02:56:23.723Z,7.30
2023-03-06T02:57:25.237Z,7.50
2023-03-06T02:58:26.781Z,8.50
2023-03-06T02:59:28.258Z,7.32
2023-03-06T03:00:30.832Z,7.45
2023-03-06T03:01:32.340Z,7.45
2023-03-06T03:02:33.828Z,7.93
2023-03-06T03:03:35.286Z,7.45
2023-03-06T03:04:36.859Z,7.25
2023-03-06T03:05:38.646Z,7.25
2023-03-06T03:06:40.085Z,7.78
2023-03-06T03:07:41.803Z,7.10
2023-03-06T03:08:45.390Z,7.95
2023-03-06T03:09:46.814Z,7.15
2023-03-06T03:10:48.219Z,6.80
2023-03-06T03:11:49.625Z,7.30
2023-03-06T03:12:51.693Z,8.10
2023-03-06T03:13:53.196Z,7.85
2023-03-06T03:14:56.331Z,7.65
2023-03-06T03:16:15.960Z,7.38
2023-03-06T03:17:17.524Z,8.07
2023-03-06T03:18:18.952Z,7.78
2023-03-06T03:19:20.474Z,7.20
2023-03-06T03:20:22.781Z,7.47
2023-03-06T03:21:24.430Z,7.40
2023-03-06T03:22:25.933Z,7.85
2023-03-06T03:23:27.776Z,7.80
2023-03-06T03:24:29.262Z,7.68
2023-03-06T03:25:30.728Z,7.60
2023-03-06T03:26:32.262Z,8.00
2023-03-06T03:27:33.687Z,8.02
2023-03-06T03:28:35.355Z,7.15
2023-03-06T03:29:37.460Z,7.05
2023-03-06T03:30:40.565Z,7.30
2023-03-06T03:31:42.087Z,8.10
2023-03-06T03:32:43.617Z,8.18
2023-03-06T03:33:45.161Z,7.50
2023-03-06T03:34:46.666Z,8.13
2023-03-06T03:35:56.975Z,7.72
2023-03-06T03:36:58.487Z,8.05
2023-03-06T03:38:00.240Z,7.70
2023-03-06T03:39:01.840Z,8.15
2023-03-06T03:40:05.068Z,7.50
2023-03-06T03:41:06.540Z,22.98
2023-03-06T03:42:08.153Z,38.45
2023-03-06T03:43:09.610Z,19.38
2023-03-06T03:44:11.417Z,12.80
2023-03-06T03:45:13.005Z,8.85
2023-03-06T03:46:14.456Z,9.05
2023-03-06T03:47:15.897Z,7.82
2023-03-06T03:48:17.342Z,9.18
2023-03-06T03:49:19.013Z,8.93
2023-03-06T03:50:20.518Z,8.02
2023-03-06T03:51:22.093Z,8.15
2023-03-06T03:52:23.645Z,8.50
2023-03-06T03:53:25.114Z,8.10
2023-03-06T03:54:26.556Z,8.00
2023-03-06T03:55:28.636Z,7.65
2023-03-06T03:56:30.038Z,7.45
2023-03-06T03:57:31.621Z,7.97
2023-03-06T03:58:33.097Z,7.20
2023-03-06T03:59:34.592Z,7.70
2023-03-06T04:00:36.069Z,8.10
2023-03-06T04:01:39.673Z,8.25
2023-03-06T04:02:41.997Z,7.80
2023-03-06T04:03:43.893Z,8.07
2023-03-06T04:04:45.410Z,7.85
2023-03-06T04:05:46.921Z,7.90
2023-03-06T04:06:48.772Z,8.27
2023-03-06T04:07:50.186Z,8.15
2023-03-06T04:08:51.674Z,7.95
2023-03-06T04:09:53.402Z,8.27
2023-03-06T04:10:55.305Z,7.90
2023-03-06T04:11:56.922Z,7.63
2023-03-06T04:12:58.510Z,8.07
2023-03-06T04:14:00.147Z,7.82
2023-03-06T04:15:01.837Z,8.10
2023-03-06T04:16:03.549Z,7.93
2023-03-06T04:17:05.326Z,8.52
2023-03-06T04:18:06.991Z,7.45
2023-03-06T04:19:08.800Z,8.27
2023-03-06T04:20:11.290Z,7.88
2023-03-06T04:21:12.896Z,7.55
2023-03-06T04:22:14.440Z,8.45
2023-03-06T04:23:17.343Z,7.43
2023-03-06T04:24:18.852Z,8.15
2023-03-06T04:25:20.363Z,8.27
2023-03-06T04:26:21.790Z,8.10
2023-03-06T04:27:23.450Z,8.32
2023-03-06T04:28:25.468Z,8.57
2023-03-06T04:29:27.008Z,7.88
2023-03-06T04:30:28.494Z,8.18
2023-03-06T04:31:30.159Z,8.55
2023-03-06T04:32:31.727Z,7.78
2023-03-06T04:33:34.591Z,8.38
2023-03-06T04:34:36.365Z,8.38
2023-03-06T04:35:38.005Z,8.32
2023-03-06T04:36:41.460Z,7.28
2023-03-06T04:37:43.117Z,8.50
2023-03-06T04:38:44.781Z,8.27
2023-03-06T04:39:46.567Z,7.68
2023-03-06T04:40:49.659Z,8.10
2023-03-06T04:41:51.518Z,8.40
2023-03-06T04:42:54.311Z,9.40
2023-03-06T04:43:55.910Z,8.05
2023-03-06T04:44:57.355Z,7.68
2023-03-06T04:45:59.017Z,8.20
2023-03-06T04:47:00.745Z,8.25
2023-03-06T04:48:02.618Z,8.07
2023-03-06T04:49:06.726Z,8.82
2023-03-06T04:50:10.244Z,7.90
2023-03-06T04:51:13.159Z,8.10
2023-03-06T04:52:14.710Z,8.65
2023-03-06T04:53:16.970Z,8.77
2023-03-06T04:54:19.112Z,8.73
2023-03-06T04:55:20.718Z,7.97
2023-03-06T04:56:22.298Z,8.43
2023-03-06T04:57:24.044Z,8.35
2023-03-06T04:58:26.574Z,8.52
2023-03-06T04:59:28.213Z,8.48
2023-03-06T05:00:31.549Z,8.93
2023-03-06T05:01:33.163Z,8.65
2023-03-06T05:02:34.946Z,8.80
2023-03-06T05:03:36.524Z,8.02
2023-03-06T05:04:37.970Z,8.25
2023-03-06T05:05:39.423Z,8.82
2023-03-06T05:06:40.946Z,8.65
2023-03-06T05:07:42.615Z,8.23
2023-03-06T05:08:44.408Z,8.68
2023-03-06T05:09:45.918Z,9.10
2023-03-06T05:10:55.035Z,9.23
2023-03-06T05:11:56.517Z,9.30
2023-03-06T05:12:58.023Z,8.18
2023-03-06T05:13:59.639Z,8.93
2023-03-06T05:15:01.250Z,9.27
2023-03-06T05:16:04.861Z,8.60
2023-03-06T05:17:06.363Z,9.40
2023-03-06T05:18:07.858Z,8.80
2023-03-06T05:19:09.321Z,9.50
2023-03-06T05:20:12.493Z,9.10
2023-03-06T05:21:13.922Z,9.13
2023-03-06T05:22:15.395Z,8.77
2023-03-06T05:23:16.867Z,9.05
2023-03-06T05:24:18.413Z,8.45
2023-03-06T05:25:19.880Z,9.07
2023-03-06T05:26:21.332Z,8.73
2023-03-06T05:27:22.844Z,8.43
2023-03-06T05:28:26.041Z,8.63
2023-03-06T05:29:27.933Z,8.75
2023-03-06T05:30:29.746Z,9.32
2023-03-06T05:31:31.248Z,9.10
2023-03-06T05:32:35.470Z,8.73
2023-03-06T05:33:37.738Z,8.00
2023-03-06T05:34:40.058Z,8.88
2023-03-06T05:35:46.173Z,8.68
2023-03-06T05:36:47.815Z,8.75
2023-03-06T05:37:49.451Z,8.95
2023-03-06T05:38:51.181Z,8.85
2023-03-06T05:39:52.663Z,9.27
2023-03-06T05:40:54.271Z,9.13
2023-03-06T05:41:55.777Z,8.55
2023-03-06T05:42:57.564Z,8.70
2023-03-06T05:43:59.255Z,9.30
2023-03-06T05:45:02.427Z,9.75
2023-03-06T05:46:06.467Z,9.55
2023-03-06T05:47:08.902Z,9.13
2023-03-06T05:48:13.027Z,9.18
2023-03-06T05:49:14.745Z,8.77
2023-03-06T05:50:16.468Z,9.57
2023-03-06T05:51:18.039Z,9.48
2023-03-06T05:52:19.639Z,9.15
2023-03-06T05:53:21.133Z,9.07
2023-03-06T05:54:24.406Z,9.52
2023-03-06T05:55:25.864Z,9.90
2023-03-06T05:56:27.313Z,8.75
2023-03-06T05:57:29.970Z,8.60
2023-03-06T05:58:32.865Z,9.57
2023-03-06T05:59:34.420Z,8.98
2023-03-06T06:00:35.887Z,9.63
2023-03-06T06:01:37.562Z,9.60
2023-03-06T06:02:42.099Z,9.20
2023-03-06T06:03:44.541Z,9.75
2023-03-06T06:04:46.085Z,9.85
2023-03-06T06:05:47.504Z,9.35
2023-03-06T06:06:57.266Z,9.05
2023-03-06T06:07:58.734Z,9.43
2023-03-06T06:09:00.318Z,9.63
2023-03-06T06:10:04.554Z,9.27
2023-03-06T06:11:10.627Z,10.40
2023-03-06T06:12:13.833Z,9.35
2023-03-06T06:13:15.376Z,9.48
2023-03-06T06:14:16.939Z,9.57
2023-03-06T06:15:21.206Z,9.80
2023-03-06T06:16:22.710Z,9.80
2023-03-06T06:17:24.634Z,9.73
2023-03-06T06:18:26.204Z,9.10
2023-03-06T06:19:31.563Z,9.15
2023-03-06T06:20:33.145Z,9.18
2023-03-06T06:21:34.772Z,9.63
2023-03-06T06:22:38.080Z,9.85
2023-03-06T06:23:39.528Z,10.18
2023-03-06T06:24:41.051Z,9.23
2023-03-06T06:25:42.489Z,9.60
2023-03-06T06:26:44.066Z,10.18
2023-03-06T06:27:45.588Z,9.80
2023-03-06T06:28:47.340Z,9.95
2023-03-06T06:29:51.470Z,9.57
2023-03-06T06:30:53.025Z,9.50
2023-03-06T06:31:55.482Z,9.70
2023-03-06T06:32:57.305Z,9.98
2023-03-06T06:34:01.569Z,9.80
2023-03-06T06:35:03.860Z,10.23
2023-03-06T06:36:05.951Z,9.55
2023-03-06T06:37:07.469Z,10.23
2023-03-06T06:38:09.135Z,10.63
2023-03-06T06:39:13.919Z,9.75
2023-03-06T06:40:15.512Z,10.10
2023-03-06T06:43:41.953Z,9.63
2023-03-06T06:44:43.836Z,10.13
2023-03-06T06:45:45.521Z,9.98
2023-03-06T06:47:21.251Z,10.57
2023-03-06T06:48:12.034Z,10.13
2023-03-06T06:49:13.846Z,10.35
2023-03-06T06:50:15.749Z,10.38
2023-03-06T06:51:17.810Z,10.77
2023-03-06T06:52:19.943Z,9.95
2023-03-06T06:53:21.569Z,11.40
2023-03-06T06:54:25.534Z,9.68
2023-03-06T06:55:27.559Z,10.60
2023-03-06T06:56:29.017Z,10.98
2023-03-06T06:57:30.549Z,10.93
2023-03-06T06:58:31.980Z,10.45
2023-03-06T06:59:33.602Z,10.75
2023-03-06T07:00:35.013Z,10.77
2023-03-06T07:01:36.648Z,10.40
2023-03-06T07:02:38.615Z,10.23
2023-03-06T07:03:40.870Z,10.50
2023-03-06T07:05:00.198Z,10.50
2023-03-06T07:06:05.577Z,10.82
2023-03-06T07:07:07.161Z,10.02
2023-03-06T07:08:08.844Z,10.45
2023-03-06T07:09:10.539Z,9.75
2023-03-06T07:10:14.687Z,10.32
2023-03-06T07:11:18.432Z,11.25
2023-03-06T07:12:20.072Z,11.45
2023-03-06T07:13:21.688Z,11.23
2023-03-06T07:14:23.121Z,10.70
2023-03-06T07:15:27.041Z,11.15
2023-03-06T07:16:28.544Z,11.23
2023-03-06T07:17:30.318Z,10.68
2023-03-06T07:18:31.864Z,10.00
2023-03-06T07:19:33.464Z,10.50
2023-03-06T07:20:36.031Z,10.65
2023-03-06T07:21:37.529Z,10.77
2023-03-06T07:22:50.306Z,11.00
2023-03-06T07:23:52.647Z,11.27
2023-03-06T07:24:54.108Z,10.40
2023-03-06T07:25:56.960Z,11.20
2023-03-06T07:26:58.526Z,10.82
2023-03-06T07:28:00.165Z,10.95
2023-03-06T07:29:02.427Z,10.90
2023-03-06T07:30:05.174Z,11.40
2023-03-06T07:31:11.536Z,11.23
2023-03-06T07:32:13.171Z,10.32
2023-03-06T07:33:15.465Z,10.65
2023-03-06T07:34:16.984Z,11.15
2023-03-06T07:35:20.462Z,10.48
2023-03-06T07:36:23.396Z,10.35
2023-03-06T07:37:25.094Z,10.60
2023-03-06T07:38:26.654Z,10.75
2023-03-06T07:39:30.078Z,11.05
2023-03-06T07:40:31.652Z,10.70
2023-03-06T07:41:33.130Z,11.95
2023-03-06T07:42:35.004Z,11.35
2023-03-06T07:43:36.497Z,10.60
2023-03-06T07:44:38.104Z,11.38
2023-03-06T07:45:39.811Z,10.55
2023-03-06T07:46:41.532Z,10.98
2023-03-06T07:47:43.188Z,11.05
2023-03-06T07:48:44.863Z,9.45
2023-03-06T07:49:46.405Z,11.13
2023-03-06T07:50:58.990Z,10.95
2023-03-06T07:52:01.355Z,11.40
2023-03-06T07:53:02.809Z,10.98
2023-03-06T07:54:04.346Z,11.57
2023-03-06T07:55:06.392Z,11.18
2023-03-06T07:56:09.305Z,11.10
2023-03-06T07:58:12.162Z,10.10
2023-03-06T07:59:13.706Z,11.15
2023-03-06T08:00:16.482Z,11.23
2023-03-06T08:01:20.411Z,10.38
2023-03-06T08:02:21.903Z,10.60
2023-03-06T08:03:23.332Z,10.50
2023-03-06T08:04:24.790Z,11.00
2023-03-06T08:05:26.260Z,10.57
2023-03-06T08:06:27.989Z,10.85
2023-03-06T08:07:30.057Z,10.93
2023-03-06T08:08:31.476Z,10.45
2023-03-06T08:09:34.574Z,10.63
2023-03-06T08:12:38.913Z,9.43
2023-03-06T08:13:40.658Z,10.55
2023-03-06T08:14:42.135Z,9.75
2023-03-06T08:15:47.909Z,9.95
2023-03-06T08:16:51.187Z,10.95
2023-03-06T08:17:53.318Z,10.27
2023-03-06T08:18:55.731Z,10.82
2023-03-06T08:19:57.286Z,10.68
2023-03-06T08:21:05.128Z,10.43
2023-03-06T08:22:07.358Z,10.25
2023-03-06T08:23:08.800Z,10.45
2023-03-06T08:24:10.376Z,11.15
2023-03-06T08:25:13.465Z,10.85
2023-03-06T08:26:21.040Z,10.18
2023-03-06T08:27:22.936Z,10.30
2023-03-06T08:28:24.957Z,11.18
2023-03-06T08:29:27.452Z,10.40
2023-03-06T08:30:29.838Z,10.13
2023-03-06T08:31:31.247Z,10.38
2023-03-06T08:32:36.594Z,10.00
2023-03-06T08:33:39.238Z,10.98
2023-03-06T08:34:42.505Z,9.88
2023-03-06T08:35:44.105Z,11.30
2023-03-06T08:36:45.591Z,11.00
2023-03-06T08:37:47.039Z,9.93
2023-03-06T08:38:48.507Z,10.45
2023-03-06T08:39:49.944Z,10.90
2023-03-06T08:40:51.453Z,10.43
2023-03-06T08:41:53.034Z,10.80
2023-03-06T08:42:54.493Z,10.43
2023-03-06T08:43:56.494Z,10.20
2023-03-06T08:44:57.948Z,10.10
2023-03-06T08:46:00.282Z,9.77
2023-03-06T08:47:02.405Z,10.15
2023-03-06T08:48:03.892Z,9.65
2023-03-06T08:49:05.358Z,9.38
2023-03-06T08:50:07.129Z,9.80
2023-03-06T08:51:10.163Z,9.52
2023-03-06T08:53:13.351Z,10.23
2023-03-06T08:54:14.860Z,9.30
2023-03-06T08:55:16.376Z,9.48
2023-03-06T08:56:27.021Z,10.27
2023-03-06T08:57:28.570Z,9.27
2023-03-06T08:58:30.688Z,9.73
2023-03-06T08:59:32.108Z,9.93
2023-03-06T09:00:33.836Z,10.20
2023-03-06T09:01:36.796Z,10.02
2023-03-06T09:03:40.193Z,8.93
2023-03-06T09:04:41.654Z,8.50
2023-03-06T09:05:43.162Z,9.00
2023-03-06T09:06:45.692Z,9.05
2023-03-06T09:07:47.164Z,7.95
2023-03-06T09:08:51.271Z,8.00
2023-03-06T09:09:57.423Z,8.40
2023-03-06T09:10:58.991Z,8.63
2023-03-06T09:12:00.488Z,8.10
2023-03-06T09:13:02.445Z,8.02
2023-03-06T09:14:05.543Z,8.55
2023-03-06T09:15:08.071Z,8.40
2023-03-06T09:16:10.900Z,8.60
2023-03-06T09:17:12.469Z,8.93
2023-03-06T09:18:13.896Z,8.15
2023-03-06T09:19:15.343Z,7.40
2023-03-06T09:20:17.945Z,8.07
2023-03-06T09:21:21.860Z,8.55
2023-03-06T09:22:23.328Z,8.48
2023-03-06T09:23:24.854Z,8.45
2023-03-06T09:24:26.519Z,8.55
2023-03-06T09:25:27.953Z,8.60
2023-03-06T09:26:43.372Z,8.40
2023-03-06T09:28:01.769Z,8.57
2023-03-06T09:29:07.407Z,8.25
2023-03-06T09:30:11.200Z,8.20
2023-03-06T09:31:15.830Z,8.55
2023-03-06T09:32:17.397Z,7.55
2023-03-06T09:33:20.088Z,7.78
2023-03-06T09:34:21.692Z,7.88
2023-03-06T09:35:23.212Z,8.27
2023-03-06T09:36:24.798Z,8.70
2023-03-06T09:37:26.241Z,7.80
2023-03-06T09:38:28.115Z,8.02
2023-03-06T09:39:29.862Z,8.23
2023-03-06T09:40:55.878Z,8.77
2023-03-06T09:41:58.410Z,8.00
2023-03-06T09:43:00.894Z,8.10
2023-03-06T09:44:11.870Z,7.85
2023-03-06T09:45:14.335Z,8.52
2023-03-06T09:46:38.037Z,8.27
2023-03-06T09:48:00.658Z,8.15
2023-03-06T09:49:23.745Z,8.40
2023-03-06T09:50:51.600Z,8.43
2023-03-06T09:52:28.214Z,8.00
2023-03-06T09:53:38.608Z,8.00
2023-03-06T09:54:53.192Z,8.35
2023-03-06T09:56:03.539Z,8.20
2023-03-06T09:57:14.134Z,8.18
2023-03-06T09:58:25.733Z,8.13
2023-03-06T09:59:30.954Z,8.30
2023-03-06T10:00:59.703Z,7.97
2023-03-06T10:02:31.324Z,7.75
2023-03-06T10:03:45.232Z,7.45
2023-03-06T10:04:52.026Z,7.80
2023-03-06T10:06:02.774Z,7.47
2023-03-06T10:07:22.045Z,8.13
2023-03-06T10:08:31.083Z,8.77
2023-03-06T10:09:45.816Z,8.55
2023-03-06T10:10:59.047Z,8.82
2023-03-06T10:12:24.923Z,8.25
2023-03-06T10:13:32.479Z,8.65
2023-03-06T10:14:48.449Z,9.45
2023-03-06T10:15:54.849Z,9.10
2023-03-06T10:16:57.365Z,8.43
2023-03-06T10:17:59.029Z,8.65
2023-03-06T10:19:04.555Z,8.20
2023-03-06T10:20:19.543Z,8.93
2023-03-06T10:21:33.269Z,8.35
2023-03-06T10:23:31.991Z,8.90
2023-03-06T10:24:49.531Z,7.43
2023-03-06T10:26:02.602Z,8.55
2023-03-06T10:27:16.978Z,8.35
2023-03-06T10:28:24.559Z,8.02
2023-03-06T10:30:04.437Z,8.05
2023-03-06T10:32:46.295Z,8.25
2023-03-06T10:34:12.416Z,7.68
2023-03-06T10:35:19.279Z,7.70
2023-03-06T10:36:26.579Z,7.93
2023-03-06T10:37:32.573Z,7.88
2023-03-06T10:38:38.455Z,8.43
2023-03-06T10:39:40.059Z,7.40
2023-03-06T10:41:10.967Z,7.55
2023-03-06T10:42:12.634Z,7.88
2023-03-06T10:43:14.368Z,8.20
2023-03-06T10:44:15.970Z,8.13
2023-03-06T10:45:17.826Z,8.07
2023-03-06T10:46:28.926Z,8.35
2023-03-06T10:47:35.267Z,8.50
2023-03-06T10:48:40.900Z,7.97
2023-03-06T10:49:58.100Z,7.47
2023-03-06T10:51:18.626Z,7.03
2023-03-06T10:52:22.308Z,6.80
2023-03-06T10:53:26.784Z,7.07
2023-03-06T10:54:34.190Z,6.80
2023-03-06T10:55:37.898Z,7.40
2023-03-06T10:56:42.031Z,7.22
2023-03-06T10:57:43.552Z,7.30
2023-03-06T10:58:45.218Z,6.70
2023-03-06T11:00:23.601Z,7.25
2023-03-06T11:01:25.378Z,6.72
2023-03-06T11:02:31.446Z,6.45
2023-03-06T11:03:35.060Z,6.50
2023-03-06T11:04:46.337Z,7.45
2023-03-06T11:06:12.941Z,6.25
2023-03-06T11:07:36.258Z,6.55
2023-03-06T11:08:39.336Z,6.47
2023-03-06T11:10:00.602Z,5.85
2023-03-06T11:11:04.234Z,6.80
2023-03-06T11:12:26.668Z,6.88
2023-03-06T11:13:31.598Z,6.85
2023-03-06T11:14:33.290Z,5.88
2023-03-06T11:15:35.429Z,6.20
2023-03-06T11:16:39.314Z,5.72
2023-03-06T11:18:05.476Z,6.07
2023-03-06T11:19:20.523Z,5.85
2023-03-06T11:20:41.288Z,6.13
2023-03-06T11:22:16.842Z,6.20
2023-03-06T11:23:21.280Z,6.25
2023-03-06T11:24:22.995Z,5.80
2023-03-06T11:25:35.918Z,6.15
2023-03-06T11:26:47.498Z,5.88
2023-03-06T11:28:04.009Z,5.85
2023-03-06T11:29:14.689Z,6.25
2023-03-06T11:30:54.481Z,6.50
2023-03-06T11:32:19.384Z,5.63
2023-03-06T11:33:42.777Z,6.40
2023-03-06T11:34:50.565Z,6.10
2023-03-06T11:36:18.686Z,6.68
2023-03-06T11:37:23.787Z,6.57
2023-03-06T11:38:46.931Z,6.43
2023-03-06T11:40:06.768Z,5.85
2023-03-06T11:41:18.059Z,6.35
2023-03-06T11:42:28.654Z,7.00
2023-03-06T11:43:41.106Z,6.28
2023-03-06T11:45:14.821Z,7.07
2023-03-06T11:46:37.704Z,7.15
2023-03-06T11:47:49.686Z,6.88
2023-03-06T11:49:16.931Z,6.75
2023-03-06T11:50:25.570Z,6.30
2023-03-06T11:51:32.505Z,6.80
2023-03-06T11:52:44.367Z,6.88
2023-03-06T11:53:45.934Z,6.10
2023-03-06T11:54:53.279Z,6.70
2023-03-06T11:56:05.209Z,6.18
2023-03-06T11:57:18.341Z,6.25
2023-03-06T11:58:25.605Z,6.55
2023-03-06T11:59:45.861Z,5.75
2023-03-06T12:00:58.185Z,6.70
2023-03-06T12:02:22.269Z,7.15
2023-03-06T12:03:59.162Z,7.43
2023-03-06T12:05:25.978Z,6.40
2023-03-06T12:06:59.354Z,7.20
2023-03-06T12:08:25.816Z,6.43
2023-03-06T12:09:38.199Z,6.65
2023-03-06T12:10:52.117Z,7.30
2023-03-06T12:12:09.366Z,6.70
2023-03-06T12:14:45.456Z,6.72
2023-03-06T12:16:23.109Z,7.35
2023-03-06T12:17:33.698Z,6.53
2023-03-06T12:18:43.140Z,7.03
2023-03-06T12:20:00.035Z,7.00
2023-03-06T12:21:07.292Z,6.68
2023-03-06T12:22:31.295Z,6.90
2023-03-06T12:24:04.141Z,6.70
2023-03-06T12:25:17.800Z,6.43
2023-03-06T12:26:46.923Z,6.85
2023-03-06T12:27:57.683Z,6.47
2023-03-06T12:29:16.852Z,6.95
2023-03-06T12:30:46.203Z,6.70
2023-03-06T12:31:50.605Z,7.15
2023-03-06T12:33:13.779Z,7.10
2023-03-06T12:34:28.404Z,7.65
2023-03-06T12:35:57.894Z,6.55
2023-03-06T12:37:17.885Z,7.18
2023-03-06T12:38:31.684Z,7.10
2023-03-06T12:40:10.907Z,7.20
2023-03-06T12:41:37.999Z,7.05
2023-03-06T12:43:01.505Z,6.85
2023-03-06T12:44:34.177Z,6.88
2023-03-06T12:45:37.140Z,6.75
2023-03-06T12:47:52.823Z,6.50
2023-03-06T12:49:31.850Z,6.90
2023-03-06T12:51:40.717Z,6.93
2023-03-06T12:52:42.668Z,7.18
2023-03-06T12:53:45.396Z,7.10
2023-03-06T12:54:47.243Z,6.95
2023-03-06T12:55:50.841Z,7.75
2023-03-06T12:56:54.200Z,6.68
2023-03-06T12:57:56.793Z,7.32
2023-03-06T12:59:02.436Z,7.30
2023-03-06T13:00:04.527Z,6.82
2023-03-06T13:01:36.872Z,7.43
2023-03-06T13:03:04.261Z,7.03
2023-03-06T13:04:29.301Z,6.95
2023-03-06T13:05:48.982Z,6.93
2023-03-06T13:07:15.513Z,7.10
2023-03-06T13:08:24.668Z,7.18
2023-03-06T13:09:40.724Z,7.43
2023-03-06T13:10:43.801Z,6.95
2023-03-06T13:13:05.341Z,6.82
2023-03-06T13:14:54.217Z,6.68
2023-03-06T13:16:18.189Z,6.85
2023-03-06T13:17:37.757Z,7.30
2023-03-06T13:18:42.218Z,6.50
2023-03-06T13:19:43.843Z,7.28
2023-03-06T13:20:46.089Z,7.45
2023-03-06T13:21:56.276Z,7.07
2023-03-06T13:22:58.543Z,6.85
2023-03-06T13:24:23.796Z,6.88
2023-03-06T13:25:32.647Z,6.72
2023-03-06T13:26:34.103Z,6.90
2023-03-06T13:28:04.885Z,6.68
2023-03-06T13:29:38.259Z,7.15
2023-03-06T13:30:39.899Z,7.20
2023-03-06T13:31:41.436Z,6.78
2023-03-06T13:32:43.273Z,6.10
2023-03-06T13:33:44.707Z,5.97
2023-03-06T13:34:48.573Z,6.10
2023-03-06T13:35:55.728Z,5.90
2023-03-06T13:37:27.687Z,5.63
2023-03-06T13:38:37.901Z,6.03
2023-03-06T13:40:01.438Z,5.70
2023-03-06T13:41:27.553Z,5.18
2023-03-06T13:42:45.080Z,5.82
2023-03-06T13:43:47.998Z,6.40
2023-03-06T13:44:51.622Z,6.07
2023-03-06T13:45:54.378Z,5.82
2023-03-06T13:47:08.142Z,5.80
2023-03-06T13:48:46.247Z,5.90
2023-03-06T13:49:48.660Z,5.90
2023-03-06T13:50:51.414Z,5.93
2023-03-06T13:51:52.822Z,5.75
2023-03-06T13:53:15.697Z,6.35
2023-03-06T13:55:00.587Z,5.88
2023-03-06T13:56:12.526Z,5.82
2023-03-06T13:57:35.347Z,5.65
2023-03-06T13:58:55.303Z,5.55
2023-03-06T14:00:21.813Z,5.82
2023-03-06T14:01:47.133Z,6.03
2023-03-06T14:03:34.094Z,5.68
2023-03-06T14:05:10.156Z,5.60
2023-03-06T14:06:36.163Z,4.97
2023-03-06T14:07:49.232Z,5.80
2023-03-06T14:08:51.317Z,5.55
2023-03-06T14:09:57.864Z,5.70
2023-03-06T14:11:19.813Z,5.72
2023-03-06T14:12:26.466Z,5.45
2023-03-06T14:13:45.315Z,6.50
2023-03-06T14:14:52.740Z,5.88
2023-03-06T14:15:55.847Z,5.75
2023-03-06T14:16:58.724Z,5.65
2023-03-06T14:18:14.251Z,5.20
2023-03-06T14:19:18.880Z,5.18
2023-03-06T14:20:21.797Z,5.68
2023-03-06T14:21:45.378Z,5.38
2023-03-06T14:22:47.249Z,5.70
2023-03-06T14:24:00.306Z,5.93
2023-03-06T14:25:38.065Z,5.97
2023-03-06T14:26:43.452Z,6.78
2023-03-06T14:27:49.529Z,5.85
2023-03-06T14:28:59.644Z,5.75
2023-03-06T14:30:11.568Z,5.90
2023-03-06T14:31:22.688Z,5.90
2023-03-06T14:32:24.582Z,5.65
2023-03-06T14:33:55.470Z,6.15
2023-03-06T14:34:57.064Z,5.93
2023-03-06T14:36:05.171Z,6.43
2023-03-06T14:37:19.256Z,5.10
2023-03-06T14:38:20.842Z,5.90
2023-03-06T14:39:36.065Z,7.00
2023-03-06T14:40:43.893Z,5.47
2023-03-06T14:41:45.943Z,6.30
2023-03-06T14:42:47.545Z,6.35
2023-03-06T14:43:49.080Z,6.25
2023-03-06T14:45:02.665Z,5.72
2023-03-06T14:46:06.689Z,6.20
2023-03-06T14:47:29.567Z,6.10
2023-03-06T14:48:43.086Z,5.97
2023-03-06T14:49:44.603Z,5.60
2023-03-06T14:50:56.926Z,6.05
2023-03-06T14:52:02.329Z,6.95
2023-03-06T14:53:17.473Z,6.43
2023-03-06T14:54:24.438Z,6.78